• Join FlightAware (Why Join?)
  • Login
  • US Flag 
05:10AM EDT


 

Airport Tracker/Info


-or-


 

Live Flight TrackerFlight Track Log ✈ SWA1729 ✈ 01-Mar-2014 ✈ KBWI - KMDW

Flight Track Log - Related Links

Times and Time Zones

All times are in EST time to prevent confusion due to time zone crossing. See the SWA1729 flight status page for this flight to view local times or setup timezone preferences in your user account.

Time Position Orientation Groundspeed Altitude Reporting Facility
EST Latitude Longitude Course Direction KTS MPH feet Rate Location/Type
06:02PM 39.1833 -76.8167 270° West 234 269 4,900  Level Potomac TRACON
06:03PM 39.2000 -76.9000 284° West 246 283 9,000 3,120 Climbing Potomac TRACON
06:06PM 39.2131 -77.1244 274° West 325 374 15,400 2,760 Climbing Washington Center
06:07PM 39.1147 -77.2201 211° Southwest  Level FlightAware Approximate
06:07PM 39.1444 -77.2194 227° Southwest 373 429 18,400  Level Washington Center
06:08PM 39.1158 -77.3442 254° West 368 423 20,900 2,760 Climbing Washington Center
06:09PM 39.0869 -77.5064 257° West 388 447 24,100 2,760 Climbing Washington Center
06:10PM 39.0633 -77.6464 258° West 393 452 26,700 2,220 Climbing Washington Center
06:11PM 39.0367 -77.7958 257° West 395 455 28,800 1,920 Climbing Washington Center
06:12PM 39.0156 -77.9125 257° West 394 453 30,800 2,460 Climbing Washington Center
06:13PM 38.9861 -78.0736 257° West 391 450 34,000 2,460 Climbing Washington Center
06:14PM 38.9644 -78.2008 258° West 372 428 35,900 1,740 Climbing Washington Center
06:15PM 38.9681 -78.3267 272° West 354 407 37,700 1,140 Climbing Washington Center
06:16PM 38.9750 -78.4517 274° West 352 405 38,300 780 Climbing Washington Center
06:17PM 38.9839 -78.5769 275° West 352 405 39,400 780 Climbing Washington Center
06:18PM 38.9919 -78.7014 275° West 352 405 40,000 240 Climbing Washington Center
06:19PM 39.0003 -78.8472 274° West 344 396 40,000  Level Washington Center
06:20PM 39.0075 -78.9711 274° West 345 397 40,000  Level Washington Center
06:21PM 39.0142 -79.0942 274° West 345 397 40,000  Level Washington Center
06:22PM 39.0231 -79.2181 275° West 347 399 40,000  Level Washington Center
06:23PM 39.0311 -79.3383 275° West 343 395 40,000  Level Washington Center
06:24PM 39.0381 -79.4586 274° West 342 394 40,000  Level Washington Center
06:25PM 39.0464 -79.5897 275° West 342 394 40,000  Level Washington Center
06:27PM 39.0544 -79.7125 275° West 342 394 40,000  Level Washington Center
06:28PM 39.0611 -79.8378 274° West 344 396 40,000  Level Washington Center
06:28PM 39.0678 -79.9589 274° West 345 397 40,000  Level Indianapolis Center
06:29PM 39.0744 -80.0769 274° West 345 397 40,000  Level Indianapolis Center
06:30PM 39.0822 -80.1958 275° West 345 397 40,000  Level Indianapolis Center
06:31PM 39.0894 -80.3400 274° West 339 390 40,000  Level Indianapolis Center
06:33PM 39.0964 -80.4608 274° West 338 389 40,000  Level Indianapolis Center
06:34PM 39.1136 -80.5781 281° West 344 396 40,000  Level Indianapolis Center
06:35PM 39.1583 -80.6828 299° West 338 389 40,000  Level Indianapolis Center
06:36PM 39.2031 -80.7886 299° West 338 389 40,000  Level Indianapolis Center
06:37PM 39.2494 -80.8947 299° West 339 390 40,000  Level Indianapolis Center
06:38PM 39.2939 -81.0006 299° West 339 390 40,000  Level Indianapolis Center
06:39PM 39.3408 -81.1053 300° West 339 390 40,000  Level Indianapolis Center
06:40PM 39.3936 -81.2319 298° West 338 389 40,000  Level Indianapolis Center
06:41PM 39.4403 -81.3381 300° West 339 390 40,000  Level Indianapolis Center
06:42PM 39.4844 -81.4433 299° West 338 389 40,000  Level Indianapolis Center
06:43PM 39.5294 -81.5489 299° West 338 389 40,000  Level Indianapolis Center
06:44PM 39.5744 -81.6547 299° West 338 389 40,000  Level Indianapolis Center
06:45PM 39.6189 -81.7600 299° West 337 388 40,000  Level Indianapolis Center
06:46PM 39.6631 -81.8658 298° West 337 388 40,000  Level Indianapolis Center
06:47PM 39.7072 -81.9728 298° West 336 387 40,000  Level Indianapolis Center
06:48PM 39.7594 -82.0972 299° West 337 388 40,000  Level Indianapolis Center
06:49PM 39.8033 -82.2044 298° West 337 388 40,000  Level Indianapolis Center
06:50PM 39.8475 -82.3114 298° West 337 388 40,000  Level Indianapolis Center
06:51PM 39.8919 -82.4169 299° West 336 387 40,000  Level Indianapolis Center
06:52PM 39.9358 -82.5247 298° West 336 387 40,000  Level Indianapolis Center
06:53PM 39.9789 -82.6331 297° West 336 387 40,000  Level Indianapolis Center
06:54PM 40.0231 -82.7408 298° West 337 388 40,000  Level Indianapolis Center
06:55PM 40.0681 -82.8494 298° West 337 388 40,000  Level Indianapolis Center
06:56PM 40.1114 -82.9589 297° West 339 390 40,000  Level Indianapolis Center
06:57PM 40.1636 -83.0889 298° West 339 390 40,000  Level Indianapolis Center
06:58PM 40.2069 -83.1972 298° West 339 390 40,000  Level Indianapolis Center
06:59PM 40.2503 -83.3047 298° West 339 390 40,000 -180 Level Indianapolis Center
07:00PM 40.2944 -83.4139 298° West 339 390 39,700 -660 Descending Indianapolis Center
07:01PM 40.3367 -83.5217 297° West 339 390 38,700 -1,020 Descending Indianapolis Center
07:02PM 40.3808 -83.6319 298° West 340 391 37,700 -960 Descending Indianapolis Center
07:03PM 40.4256 -83.7478 297° West 351 404 36,800 -840 Descending Indianapolis Center
07:04PM 40.4822 -83.8553 305° West 359 413 36,000 -900 Descending Indianapolis Center
07:05PM 40.5547 -83.9697 310° West 346 398 35,000 -1,080 Descending Indianapolis Center
07:06PM 40.6131 -84.0583 311° West 328 377 33,900 -1,080 Descending Indianapolis Center
07:07PM 40.6711 -84.1450 311° West 321 369 32,900 -1,020 Descending Indianapolis Center
07:08PM 40.7281 -84.2319 311° West 320 368 31,900 -1,020 Descending Indianapolis Center
07:09PM 40.7706 -84.3256 301° West 301 346 30,900 -960 Descending Indianapolis Center
07:10PM 40.7950 -84.4303 287° West 298 343 30,000 -480 Descending Indianapolis Center
07:11PM 40.8206 -84.5306 289° West 298 343 30,000  Level Indianapolis Center
07:12PM 40.8461 -84.6386 287° West 294 338 30,000  Level Chicago Center
07:13PM 40.8728 -84.7406 289° West 294 338 30,000  Level Chicago Center
07:14PM 40.9183 -84.8319 303° West 301 346 30,000  Level Chicago Center
07:15PM 40.9653 -84.9256 304° West 301 346 30,000  Level Chicago Center
07:16PM 41.0250 -85.0456 303° West 318 366 30,000  Level Chicago Center
07:18PM 41.0744 -85.1456 303° West 324 373 30,000 -60 Level Chicago Center
07:19PM 41.1242 -85.2475 303° West 327 376 29,900 -1,140 Descending Chicago Center
07:20PM 41.1731 -85.3461 303° West 322 371 27,700 -2,220 Descending Chicago Center
07:21PM 41.2200 -85.4431 303° West 313 360 25,400 -1,920 Descending Chicago Center
07:22PM 41.2686 -85.5433 303° West 318 366 23,800 -1,320 Descending Chicago Center
07:23PM 41.3175 -85.6422 303° West 318 366 22,800 -1,020 Descending Chicago Center
07:24PM 41.3650 -85.7411 303° West 316 364 21,800 -1,020 Descending Chicago Center
07:25PM 41.4125 -85.8400 303° West 316 364 20,800 -1,020 Descending Chicago Center
07:26PM 41.4592 -85.9372 303° West 311 358 19,800 -1,440 Descending Chicago Center
07:27PM 41.5050 -86.0322 303° West 305 351 17,900 -1,920 Descending Chicago Center
07:28PM 41.5250 -86.1339 285° West 288 331 15,900 -2,160 Descending Chicago Center
07:29PM 41.5225 -86.2578 268° West 279 321 13,500 -2,160 Descending Chicago Center
07:30PM 41.5233 -86.3575 271° West 272 313 11,500 -1,260 Descending Chicago Center
07:31PM 41.5222 -86.4547 269° West 264 304 11,000 -540 Descending Chicago Center
07:32PM 41.5208 -86.5500 269° West 257 296 10,500 -540 Descending Chicago Center
07:33PM 41.5203 -86.6453 270° West 258 297 10,000 -300 Descending Chicago Center
07:34PM 41.5225 -86.7506 272° West 261 300 10,000  Level Chicago Center
07:35PM 41.5211 -86.8422 269° West 246 283 10,000 -360 Level Chicago Center
07:36PM 41.5208 -86.9244 270° West 225 259 9,300 -960 Descending Chicago Center
07:37PM 41.5197 -87.0131 269° West 223 257 8,100 -1,140 Descending Chicago Center
07:38PM 41.5178 -87.0986 268° West 230 265 7,100 -1,020 Descending Chicago Center
07:39PM 41.5206 -87.1847 272° West 233 268 6,100 -1,020 Descending Chicago Center
07:40PM 41.5311 -87.2714 279° West 236 272 5,100 -1,080 Descending Chicago Center
07:41PM 41.5392 -87.3678 276° West 242 278 4,000 -600 Descending Chicago Center
07:42PM 41.5458 -87.4564 276° West 240 276 4,000  Level Chicago Center
07:43PM 41.5528 -87.5461 276° West 244 281 4,000  Level Chicago Center
07:44PM 41.5597 -87.6353 276° West 242 278 4,000 -60 Level Chicago Center
07:45PM 41.5694 -87.7319 278° West 243 280 3,900 -540 Descending Chicago Center
07:46PM 41.5992 -87.8108 297° West 235 270 3,000 -480 Descending Chicago Center
07:47PM 41.6214 -87.8811 293° West 209 241 3,000 -120 Level Chicago Center
07:48PM 41.6578 -87.8997 339° North 171 197 2,800 -300 Descending Chicago Center
07:49PM 41.6950 -87.8647 35° Northeast 164 189 2,500 -300 Descending Chicago Center
07:50PM 41.7244 -87.8272 44° Northeast 144 166 2,300 -540 Descending Chicago Center
07:51PM 41.7483 -87.7972 43° Northeast 120 138 1,500 240 Descending Chicago Center
07:52PM 41.7786 -87.7619 41° Northeast 134 154 2,900 720 Climbing Chicago Center
07:53PM 41.8028 -87.7039 61° Northeast 193 222 3,000  Climbing Chicago Center
07:54PM 41.7742 -87.6403 121° Southeast 205 236 3,000  Level Chicago Center
07:55PM 41.7378 -87.5814 130° Southeast 205 236 3,000  Level Chicago Center
07:56PM 41.6881 -87.5869 185° South 213 245 3,000  Level Chicago Center
07:57PM 41.6372 -87.6347 215° Southwest 207 238 3,000  Level Chicago Center
07:58PM 41.5950 -87.6750 216° Southwest 188 216 3,000  Level Chicago Center
07:59PM 41.5711 -87.7358 242° Southwest 185 213 3,000  Level Chicago Center
08:00PM 41.5556 -87.8000 252° West 182 209 3,000  Level Chicago Center
08:01PM 41.5669 -87.8614 284° West 178 205 3,000  Level Chicago Center
08:02PM 41.5939 -87.9169 303° West 178 205 3,000  Level Chicago Center
08:03PM 41.6397 -87.9203 357° North 170 196 3,000  Level Chicago Center
08:04PM 41.6803 -87.8850 33° Northeast 164 189 3,000 -240 Level Chicago Center
08:05PM 41.7125 -87.8419 45° Northeast 163 188 2,600 -600 Descending Chicago Center
08:06PM 41.7403 -87.8075 43° Northeast 136 157 1,800 -780 Descending Chicago Center
08:07PM 41.7636 -87.7775 44° Northeast 119 137 1,100 -600 Descending Chicago Center
08:08PM 41.7861 -87.7508 41° Northeast 119 137 600 -540 Descending Chicago Center